Time;durP1;ratioP1;P1;durP2;ratioP2;P2;SDS_P1;SDS_P2;PMS_P1;PMS_P2;Temp;Humidity;BMP_temperature;BMP_pressure;BME280_temperature;BME280_humidity;BME280_pressure;Samples;Min_cycle;Max_cycle;Signal;HPM_P1;HPM_P2
2022/05/08 00:00:54;;;;;;;12.18;6.25;;;9.90;99.90;;;;;;5016033;28;20033;-82
2022/05/08 00:03:20;;;;;;;10.68;5.70;;;10.00;99.90;;;;;;5015751;28;20045;-82
2022/05/08 00:05:46;;;;;;;10.55;6.30;;;10.00;99.90;;;;;;5016115;28;20026;-82
2022/05/08 00:08:13;;;;;;;6.90;5.50;;;10.00;99.90;;;;;;5032339;28;20033;-82
2022/05/08 00:10:40;;;;;;;11.50;5.80;;;10.00;99.90;;;;;;5032448;28;20087;-82
2022/05/08 00:13:06;;;;;;;15.18;5.47;;;10.00;99.90;;;;;;5032603;28;20025;-83
2022/05/08 00:15:31;;;;;;;11.50;5.88;;;9.90;99.90;;;;;;5032484;28;20034;-82
2022/05/08 00:17:57;;;;;;;6.72;5.45;;;9.90;99.90;;;;;;5015853;28;20033;-82
2022/05/08 00:20:24;;;;;;;9.25;6.60;;;9.80;99.90;;;;;;5016110;28;20040;-82
2022/05/08 00:22:50;;;;;;;13.98;6.20;;;9.70;99.90;;;;;;5031908;28;20104;-82
2022/05/08 00:25:16;;;;;;;9.85;6.53;;;9.70;99.90;;;;;;5031339;28;20543;-82
2022/05/08 00:27:41;;;;;;;8.27;6.80;;;9.70;99.90;;;;;;5015501;28;20029;-82
2022/05/08 00:30:08;;;;;;;11.20;6.40;;;9.70;99.90;;;;;;5015408;28;20461;-82
2022/05/08 00:32:33;;;;;;;10.30;6.47;;;9.80;99.90;;;;;;5032995;28;20033;-83
2022/05/08 00:34:59;;;;;;;12.15;6.90;;;9.90;99.90;;;;;;5015002;28;20033;-82
2022/05/08 00:37:25;;;;;;;11.73;5.95;;;10.10;99.90;;;;;;5015473;28;20492;-82
2022/05/08 00:39:51;;;;;;;10.55;6.05;;;10.30;99.90;;;;;;5015248;28;20120;-82
2022/05/08 00:42:17;;;;;;;9.00;6.28;;;10.50;99.90;;;;;;5014796;28;20067;-82
2022/05/08 00:44:43;;;;;;;7.72;5.90;;;10.60;99.90;;;;;;5014908;28;20037;-82
2022/05/08 00:47:09;;;;;;;9.57;6.18;;;10.50;99.90;;;;;;5015012;28;20029;-82
2022/05/08 00:49:35;;;;;;;10.90;6.78;;;10.50;99.90;;;;;;5014934;28;20044;-83
2022/05/08 00:52:04;;;;;;;9.52;5.95;;;10.40;99.90;;;;;;5031410;28;20057;-82
2022/05/08 00:54:31;;;;;;;11.93;6.57;;;10.40;99.90;;;;;;5014973;28;20072;-83
2022/05/08 00:56:57;;;;;;;9.25;6.10;;;10.50;99.90;;;;;;5031528;28;20496;-83
2022/05/08 00:59:24;;;;;;;9.80;6.13;;;10.60;99.90;;;;;;5014896;28;20056;-83
2022/05/08 01:01:50;;;;;;;7.93;6.50;;;10.50;99.90;;;;;;5030534;28;20041;-82
2022/05/08 01:04:16;;;;;;;9.18;6.45;;;10.50;99.90;;;;;;5014589;28;20033;-83
2022/05/08 01:06:43;;;;;;;10.10;5.78;;;10.40;99.90;;;;;;5014563;28;20344;-83
2022/05/08 01:09:09;;;;;;;10.77;5.65;;;10.40;99.90;;;;;;5031224;28;20025;-83
2022/05/08 01:11:36;;;;;;;8.30;5.50;;;10.40;99.90;;;;;;5030928;28;20792;-83
2022/05/08 01:14:03;;;;;;;7.45;5.30;;;10.40;99.90;;;;;;5031241;28;20061;-83
2022/05/08 01:16:29;;;;;;;7.85;5.75;;;10.30;99.90;;;;;;5014863;28;20067;-83
2022/05/08 01:18:55;;;;;;;8.77;5.60;;;10.30;99.90;;;;;;5031291;28;20038;-83
2022/05/08 01:21:41;;;;;;;6.63;5.32;;;10.20;99.90;;;;;;5030766;28;20473;-83
2022/05/08 01:24:14;;;;;;;6.53;5.38;;;10.10;99.90;;;;;;5030871;28;20086;-83
2022/05/08 01:26:40;;;;;;;8.63;6.13;;;10.10;99.90;;;;;;5014055;28;20067;-82
2022/05/08 01:29:05;;;;;;;8.88;5.65;;;9.90;99.90;;;;;;5014153;28;20030;-82
2022/05/08 01:31:32;;;;;;;8.10;5.70;;;9.90;99.90;;;;;;5014236;28;20025;-82
2022/05/08 01:33:58;;;;;;;8.10;5.93;;;9.80;99.90;;;;;;5030775;28;20040;-82
2022/05/08 01:36:24;;;;;;;10.23;5.72;;;9.70;99.90;;;;;;5013724;28;20095;-82
2022/05/08 01:38:51;;;;;;;9.25;5.82;;;9.70;99.90;;;;;;5014337;28;20033;-82
2022/05/08 01:41:17;;;;;;;8.18;5.80;;;9.60;99.90;;;;;;5014270;28;20533;-83
2022/05/08 01:43:42;;;;;;;10.20;5.30;;;9.50;99.90;;;;;;5014034;28;20021;-82
2022/05/08 01:46:09;;;;;;;8.20;5.63;;;9.40;99.90;;;;;;5014009;28;20036;-83
2022/05/08 01:48:35;;;;;;;9.27;5.95;;;9.40;99.90;;;;;;5014278;28;20485;-82
2022/05/08 01:51:03;;;;;;;9.43;5.80;;;9.40;99.90;;;;;;5013916;28;20033;-83
2022/05/08 01:53:33;;;;;;;7.55;5.88;;;9.40;99.90;;;;;;5014451;28;20045;-83
2022/05/08 01:56:02;;;;;;;8.27;6.07;;;9.50;99.90;;;;;;5014768;28;20033;-82
2022/05/08 01:58:29;;;;;;;8.13;6.43;;;9.50;99.90;;;;;;5031072;28;20041;-82
2022/05/08 02:00:57;;;;;;;7.65;5.53;;;9.60;99.90;;;;;;5031152;28;20056;-82
2022/05/08 02:03:24;;;;;;;11.75;6.22;;;9.90;99.90;;;;;;5014787;28;20037;-83
2022/05/08 02:05:50;;;;;;;10.38;5.97;;;10.10;99.90;;;;;;5030833;28;20746;-83
2022/05/08 02:08:16;;;;;;;8.27;6.28;;;10.20;99.90;;;;;;5014366;28;20033;-83
2022/05/08 02:10:44;;;;;;;9.80;5.43;;;10.30;99.90;;;;;;5031427;28;20108;-83
2022/05/08 02:13:10;;;;;;;8.48;5.32;;;10.50;99.90;;;;;;5014229;28;20091;-83
2022/05/08 02:15:36;;;;;;;9.70;5.72;;;10.50;99.90;;;;;;5014507;28;20444;-83
2022/05/08 02:18:07;;;;;;;9.43;5.60;;;10.60;99.90;;;;;;5014448;28;20064;-82
2022/05/08 02:20:33;;;;;;;9.98;6.22;;;10.60;99.90;;;;;;5014336;28;20095;-82
2022/05/08 02:22:59;;;;;;;8.60;5.47;;;10.70;99.90;;;;;;5014099;28;20032;-82
2022/05/08 02:25:25;;;;;;;6.45;5.07;;;10.70;99.90;;;;;;5014314;28;20034;-83
2022/05/08 02:27:51;;;;;;;7.70;5.40;;;10.80;99.90;;;;;;5031076;28;20060;-82
2022/05/08 02:30:20;;;;;;;9.00;5.80;;;10.70;99.90;;;;;;5014186;28;20022;-82
2022/05/08 02:32:46;;;;;;;6.47;5.38;;;10.60;99.90;;;;;;5013596;28;20037;-83
2022/05/08 02:35:12;;;;;;;18.42;5.80;;;10.50;99.90;;;;;;5031819;28;20037;-82
2022/05/08 02:37:39;;;;;;;8.40;5.63;;;10.50;99.90;;;;;;5030571;28;20038;-83
2022/05/08 02:40:08;;;;;;;8.90;5.68;;;10.50;99.90;;;;;;5015825;28;20132;-82
2022/05/08 02:42:38;;;;;;;10.40;5.90;;;10.40;99.90;;;;;;5033986;28;20029;-83
2022/05/08 02:45:05;;;;;;;8.05;5.05;;;10.30;99.90;;;;;;5034618;28;20025;-83
2022/05/08 02:47:33;;;;;;;9.32;6.38;;;10.20;99.90;;;;;;5017669;28;20030;-83
2022/05/08 02:49:59;;;;;;;10.13;5.03;;;10.30;99.90;;;;;;5016680;28;20033;-82
2022/05/08 02:52:25;;;;;;;7.45;5.75;;;10.30;99.90;;;;;;5017523;28;20060;-83
2022/05/08 02:54:50;;;;;;;8.68;5.63;;;10.30;99.90;;;;;;5034043;28;20034;-82
2022/05/08 03:00:05;;;;;;;8.15;4.57;;;10.40;99.90;;;;;;5033957;28;20037;-82
2022/05/08 03:02:35;;;;;;;10.65;5.30;;;10.30;99.90;;;;;;5017293;28;20393;-82
2022/05/08 03:05:02;;;;;;;9.15;5.35;;;10.40;99.90;;;;;;5017619;28;20384;-82
2022/05/08 03:07:29;;;;;;;8.98;5.53;;;10.30;99.90;;;;;;5033668;28;20035;-83
2022/05/08 03:09:55;;;;;;;11.30;5.20;;;10.20;99.90;;;;;;5017267;28;20075;-83
2022/05/08 03:12:21;;;;;;;7.30;5.10;;;10.10;99.90;;;;;;5016565;28;20111;-82
2022/05/08 03:14:46;;;;;;;6.97;4.65;;;10.10;99.90;;;;;;5017118;28;20041;-83
2022/05/08 03:17:12;;;;;;;8.95;4.90;;;10.10;99.90;;;;;;5017038;28;20457;-83
2022/05/08 03:19:38;;;;;;;7.97;5.05;;;10.10;99.90;;;;;;5033127;28;20037;-82
2022/05/08 03:22:04;;;;;;;9.73;5.45;;;10.10;99.90;;;;;;5016241;28;20033;-83
2022/05/08 03:24:31;;;;;;;8.48;5.40;;;10.10;99.90;;;;;;5032356;28;20041;-83
2022/05/08 03:26:57;;;;;;;8.82;4.85;;;10.10;99.90;;;;;;5016515;28;20030;-83
2022/05/08 03:29:24;;;;;;;12.77;4.80;;;10.00;99.90;;;;;;5016459;28;20026;-82
2022/05/08 03:31:50;;;;;;;9.38;5.13;;;10.10;99.90;;;;;;5015993;28;20090;-83
2022/05/08 03:34:16;;;;;;;11.38;5.50;;;10.10;99.90;;;;;;5016578;28;20033;-82
2022/05/08 03:36:43;;;;;;;11.95;4.93;;;10.00;99.90;;;;;;5032955;28;20034;-83
2022/05/08 03:39:10;;;;;;;13.70;4.95;;;10.00;99.90;;;;;;5016484;28;20033;-83
2022/05/08 03:41:36;;;;;;;11.27;5.63;;;10.00;99.90;;;;;;5016150;28;20068;-82
2022/05/08 03:44:02;;;;;;;10.27;5.65;;;9.90;99.90;;;;;;5016466;28;20060;-83
2022/05/08 03:46:28;;;;;;;8.63;5.15;;;9.90;99.90;;;;;;5033051;28;20033;-83
2022/05/08 03:48:54;;;;;;;9.95;5.78;;;9.70;99.90;;;;;;5016345;28;20423;-82
2022/05/08 03:51:20;;;;;;;11.70;5.25;;;9.70;99.90;;;;;;5015410;28;20701;-82
2022/05/08 03:53:45;;;;;;;13.52;5.22;;;9.60;99.90;;;;;;5016241;28;20021;-80
2022/05/08 03:56:11;;;;;;;8.25;4.90;;;9.70;99.90;;;;;;5016204;28;20034;-80
2022/05/08 03:58:42;;;;;;;7.32;5.40;;;9.80;99.90;;;;;;5015661;28;20057;-80
2022/05/08 04:01:08;;;;;;;7.40;4.40;;;9.90;99.90;;;;;;5015446;28;20030;-80
2022/05/08 04:03:33;;;;;;;10.75;5.05;;;9.80;99.90;;;;;;5032092;28;20033;-80
2022/05/08 04:05:59;;;;;;;9.50;5.22;;;9.70;99.90;;;;;;5015821;28;20049;-80
2022/05/08 04:08:25;;;;;;;10.32;5.40;;;9.80;99.90;;;;;;5032135;28;20087;-80
2022/05/08 04:10:51;;;;;;;10.32;5.00;;;9.70;99.90;;;;;;5032111;28;20033;-80
2022/05/08 04:13:17;;;;;;;8.95;5.10;;;9.70;99.90;;;;;;5029109;28;20025;-79
2022/05/08 04:18:27;;;;;;;8.10;4.78;;;9.60;99.90;;;;;;5027084;28;20033;-80
2022/05/08 04:20:53;;;;;;;8.45;5.20;;;9.50;99.90;;;;;;5015291;28;20164;-80
2022/05/08 04:26:03;;;;;;;11.32;5.75;;;9.80;99.90;;;;;;5032080;28;20033;-80
2022/05/08 04:28:29;;;;;;;8.77;6.20;;;9.90;99.90;;;;;;5031974;28;20496;-81
2022/05/08 04:30:54;;;;;;;8.25;5.32;;;10.10;99.90;;;;;;5015549;28;20034;-80
2022/05/08 04:33:20;;;;;;;6.90;5.70;;;10.30;99.90;;;;;;5014488;28;20040;-80
2022/05/08 04:35:46;;;;;;;7.82;5.40;;;10.30;99.90;;;;;;5031880;28;20117;-79
2022/05/08 04:38:12;;;;;;;9.35;6.10;;;10.30;99.90;;;;;;5031800;28;20480;-80
2022/05/08 04:40:41;;;;;;;12.60;6.07;;;10.40;99.90;;;;;;5015309;28;20026;-80
2022/05/08 04:43:07;;;;;;;11.68;6.07;;;10.40;99.90;;;;;;5031423;28;20044;-80
2022/05/08 04:45:33;;;;;;;7.43;5.57;;;10.40;99.90;;;;;;5015193;28;20079;-80
2022/05/08 04:47:59;;;;;;;17.95;6.10;;;10.40;99.90;;;;;;5031621;28;20030;-80
2022/05/08 04:50:24;;;;;;;9.95;5.78;;;10.50;99.90;;;;;;5014668;28;20044;-80
2022/05/08 04:52:50;;;;;;;7.88;5.47;;;10.50;99.90;;;;;;5014865;28;20052;-79
2022/05/08 04:55:16;;;;;;;6.57;5.25;;;10.60;99.90;;;;;;5014814;28;20037;-79
2022/05/08 04:57:41;;;;;;;14.98;5.15;;;10.60;99.90;;;;;;5031617;28;20026;-80
2022/05/08 05:00:08;;;;;;;7.05;5.45;;;10.70;99.90;;;;;;5015168;28;20037;-80
2022/05/08 05:02:33;;;;;;;10.93;5.35;;;10.80;99.90;;;;;;5014005;28;20128;-80
2022/05/08 05:05:00;;;;;;;12.68;5.95;;;10.90;99.90;;;;;;5029088;28;20655;-80
2022/05/08 05:07:26;;;;;;;9.90;5.40;;;10.90;99.90;;;;;;5030205;28;20017;-80
2022/05/08 05:09:52;;;;;;;8.02;5.70;;;11.00;99.90;;;;;;5013502;28;20037;-80
2022/05/08 05:12:18;;;;;;;9.57;5.65;;;11.00;99.90;;;;;;5031105;28;20075;-80
2022/05/08 05:14:44;;;;;;;10.95;5.57;;;11.10;99.90;;;;;;5015125;28;20036;-80
2022/05/08 05:17:09;;;;;;;9.27;5.55;;;11.20;99.90;;;;;;5031379;28;20033;-80
2022/05/08 05:19:35;;;;;;;11.13;5.75;;;11.30;99.90;;;;;;5014399;28;20030;-80
2022/05/08 05:22:01;;;;;;;14.20;5.60;;;11.30;99.90;;;;;;5009602;28;20487;-80
2022/05/08 05:24:28;;;;;;;7.80;5.40;;;11.30;99.90;;;;;;5032277;28;20592;-80
2022/05/08 05:26:54;;;;;;;12.10;6.07;;;11.40;99.90;;;;;;5031032;28;20029;-80
2022/05/08 05:29:19;;;;;;;8.63;6.20;;;11.40;99.90;;;;;;5032623;28;20489;-80
2022/05/08 05:31:45;;;;;;;7.85;5.50;;;11.50;99.90;;;;;;5031096;28;20124;-80
2022/05/08 05:34:11;;;;;;;11.45;6.13;;;11.60;99.90;;;;;;5014815;28;20040;-80
2022/05/08 05:36:36;;;;;;;12.18;6.45;;;11.60;99.90;;;;;;5014414;28;20041;-80
2022/05/08 05:39:02;;;;;;;10.82;6.22;;;11.70;99.90;;;;;;5032322;28;20066;-80
2022/05/08 05:41:28;;;;;;;8.70;6.55;;;11.80;99.90;;;;;;5014350;28;20029;-80
2022/05/08 05:43:55;;;;;;;12.77;7.07;;;11.90;99.90;;;;;;5014338;28;20048;-80
2022/05/08 05:49:05;;;;;;;8.40;6.60;;;12.00;99.90;;;;;;5030540;28;20033;-80
2022/05/08 05:51:30;;;;;;;7.88;6.20;;;12.10;99.90;;;;;;5013778;28;20067;-80
2022/05/08 05:53:57;;;;;;;12.90;6.72;;;12.20;99.90;;;;;;5014047;28;20473;-80
2022/05/08 05:56:23;;;;;;;7.88;6.80;;;12.20;99.90;;;;;;5014045;28;20025;-80
2022/05/08 05:58:49;;;;;;;10.45;6.85;;;12.30;99.90;;;;;;5009416;28;20045;-80
2022/05/08 06:01:15;;;;;;;12.02;6.15;;;12.40;99.90;;;;;;5030345;28;20045;-80
2022/05/08 06:03:42;;;;;;;12.25;5.93;;;12.50;99.90;;;;;;5013590;28;20128;-80
2022/05/08 06:06:08;;;;;;;7.85;5.85;;;12.50;99.90;;;;;;5009609;28;20032;-80
2022/05/08 06:08:34;;;;;;;14.88;6.75;;;12.60;99.90;;;;;;5013133;28;20597;-81
2022/05/08 06:11:00;;;;;;;8.30;5.88;;;12.80;99.90;;;;;;5030171;28;20385;-80
2022/05/08 06:13:25;;;;;;;11.90;7.30;;;12.90;99.90;;;;;;5032645;28;20510;-80
2022/05/08 06:15:51;;;;;;;9.73;7.13;;;13.00;99.90;;;;;;5034596;28;20044;-80
2022/05/08 06:18:18;;;;;;;6.63;5.55;;;13.10;99.90;;;;;;5035366;28;20029;-80
2022/05/08 06:20:43;;;;;;;16.70;7.15;;;13.20;99.90;;;;;;5035664;28;20045;-80
2022/05/08 06:23:09;;;;;;;9.18;6.07;;;13.30;99.90;;;;;;5034056;28;20034;-80
2022/05/08 06:25:47;;;;;;;11.82;6.45;;;13.40;99.90;;;;;;5031400;28;20112;-80
2022/05/08 06:28:19;;;;;;;9.48;6.32;;;13.50;99.90;;;;;;5035950;28;20060;-80
2022/05/08 06:30:48;;;;;;;9.13;6.05;;;13.60;99.90;;;;;;5018220;28;20447;-79
2022/05/08 06:33:13;;;;;;;11.30;6.25;;;13.70;99.90;;;;;;5017854;28;20052;-81
2022/05/08 06:35:41;;;;;;;12.70;6.38;;;13.80;99.90;;;;;;5018020;28;20040;-81
2022/05/08 06:38:10;;;;;;;8.13;6.78;;;13.90;99.90;;;;;;5034318;28;20040;-80
2022/05/08 06:40:36;;;;;;;10.00;7.43;;;14.10;99.90;;;;;;5017794;28;20484;-80
2022/05/08 06:43:02;;;;;;;10.75;7.38;;;14.20;99.90;;;;;;5033821;28;20049;-81
2022/05/08 06:45:28;;;;;;;10.80;7.32;;;14.40;99.90;;;;;;5034299;28;20472;-80
2022/05/08 06:47:54;;;;;;;11.45;7.20;;;14.50;99.90;;;;;;5030425;28;20569;-80
2022/05/08 06:50:20;;;;;;;10.15;6.53;;;14.60;99.90;;;;;;5035149;28;20080;-80
2022/05/08 06:52:46;;;;;;;11.38;7.13;;;14.70;99.90;;;;;;5033398;28;20400;-80
2022/05/08 06:55:13;;;;;;;8.73;6.30;;;14.80;99.90;;;;;;5033536;28;20029;-80
2022/05/08 06:57:39;;;;;;;11.23;7.13;;;14.90;99.90;;;;;;5017442;28;20132;-80
2022/05/08 07:02:50;;;;;;;9.93;7.45;;;15.20;99.90;;;;;;5033523;28;20124;-80
2022/05/08 07:05:16;;;;;;;11.68;7.80;;;15.30;99.90;;;;;;5033917;28;20025;-80
2022/05/08 07:07:42;;;;;;;8.02;6.53;;;15.30;99.90;;;;;;5033810;28;20563;-80
2022/05/08 07:10:08;;;;;;;13.60;7.00;;;15.40;99.90;;;;;;5017611;28;20022;-80
2022/05/08 07:12:36;;;;;;;8.50;6.20;;;15.50;99.90;;;;;;5017313;28;20029;-81
2022/05/08 07:15:03;;;;;;;8.95;6.43;;;15.60;99.90;;;;;;5017320;28;20029;-81
2022/05/08 07:17:29;;;;;;;10.98;7.15;;;15.70;99.90;;;;;;5017138;28;20388;-80
2022/05/08 07:19:55;;;;;;;8.98;6.25;;;15.70;99.90;;;;;;5017057;28;20041;-81
2022/05/08 07:22:22;;;;;;;7.68;6.05;;;15.80;99.90;;;;;;5016532;28;20515;-80
2022/05/08 07:24:48;;;;;;;13.20;6.90;;;15.90;99.90;;;;;;5032427;28;20034;-80
2022/05/08 07:27:14;;;;;;;12.40;6.95;;;16.00;99.90;;;;;;5032974;28;20030;-81
2022/05/08 07:29:46;;;;;;;6.55;5.65;;;16.10;99.90;;;;;;5032953;28;20037;-81
2022/05/08 07:32:12;;;;;;;10.82;6.60;;;16.20;99.90;;;;;;5016068;28;20029;-80
2022/05/08 07:37:22;;;;;;;10.23;6.18;;;16.40;99.90;;;;;;5033217;28;20097;-81
2022/05/08 07:39:54;;;;;;;10.60;6.25;;;16.50;99.90;;;;;;5016420;28;20030;-80
2022/05/08 07:42:20;;;;;;;9.40;5.22;;;16.50;99.90;;;;;;5032680;28;20040;-80
2022/05/08 07:44:45;;;;;;;18.58;6.88;;;16.50;99.90;;;;;;5032834;28;20037;-81
2022/05/08 07:47:12;;;;;;;8.57;6.40;;;16.40;99.90;;;;;;5016506;28;20496;-80
2022/05/08 07:49:37;;;;;;;8.77;6.03;;;16.40;99.90;;;;;;5033237;28;20026;-80
2022/05/08 07:52:03;;;;;;;9.48;6.45;;;16.40;99.90;;;;;;5033037;28;20044;-80
2022/05/08 07:54:29;;;;;;;7.47;6.15;;;16.40;99.90;;;;;;5032837;28;20029;-80
2022/05/08 07:56:54;;;;;;;14.20;6.13;;;16.50;99.90;;;;;;5032656;28;20469;-80
2022/05/08 07:59:20;;;;;;;10.98;5.95;;;16.60;99.90;;;;;;5032346;28;20413;-80
2022/05/08 08:01:46;;;;;;;11.45;6.78;;;16.70;99.90;;;;;;5015364;28;20033;-81
2022/05/08 08:04:12;;;;;;;7.55;6.38;;;16.90;99.90;;;;;;5015714;28;20245;-81
2022/05/08 08:06:38;;;;;;;10.93;6.70;;;17.00;99.90;;;;;;5032155;28;20116;-81
2022/05/08 08:09:04;;;;;;;10.25;6.63;;;17.10;99.90;;;;;;5032569;28;20426;-80
2022/05/08 08:11:31;;;;;;;7.53;6.40;;;17.40;99.90;;;;;;5015703;28;20045;-81
2022/05/08 08:13:57;;;;;;;9.43;6.18;;;18.20;99.90;;;;;;5016129;28;20041;-81
2022/05/08 08:16:24;;;;;;;8.50;5.70;;;19.60;99.90;;;;;;5016105;28;20472;-81
2022/05/08 08:18:54;;;;;;;7.57;5.55;;;20.90;99.90;;;;;;5016033;28;20072;-81
2022/05/08 08:21:19;;;;;;;5.85;5.10;;;22.00;99.90;;;;;;5015999;28;20520;-81
2022/05/08 08:23:45;;;;;;;8.07;5.28;;;23.00;99.90;;;;;;5033382;28;20121;-81
2022/05/08 08:26:12;;;;;;;6.28;5.20;;;23.80;98.00;;;;;;5015758;28;20495;-81
2022/05/08 08:28:38;;;;;;;7.05;5.07;;;24.20;92.60;;;;;;5032628;28;20037;-81
2022/05/08 08:31:08;;;;;;;7.50;5.45;;;24.70;91.80;;;;;;5016141;28;20519;-81
2022/05/08 08:33:40;;;;;;;4.50;4.10;;;25.30;90.90;;;;;;5015590;28;20033;-81
2022/05/08 08:36:07;;;;;;;5.78;4.85;;;25.60;84.60;;;;;;5031680;28;20034;-81
2022/05/08 08:38:33;;;;;;;8.57;4.80;;;26.00;83.50;;;;;;5015099;28;20494;-81
2022/05/08 08:41:04;;;;;;;8.50;5.18;;;26.10;76.70;;;;;;5030979;28;20033;-81
2022/05/08 08:49:09;;;;;;;9.65;4.35;;;25.70;73.00;;;;;;5031780;28;20040;-81
2022/05/08 08:51:36;;;;;;;6.78;4.25;;;26.10;69.80;;;;;;5031569;28;20068;-81
2022/05/08 08:54:03;;;;;;;13.90;5.03;;;26.20;67.00;;;;;;5033131;28;20026;-81
2022/05/08 08:56:30;;;;;;;8.98;4.75;;;26.30;68.20;;;;;;5015352;28;20392;-81
2022/05/08 08:58:56;;;;;;;7.80;4.63;;;26.30;67.10;;;;;;5031450;28;20072;-81
2022/05/08 09:01:22;;;;;;;5.63;4.50;;;26.40;67.30;;;;;;5031287;28;20029;-81
2022/05/08 09:03:48;;;;;;;6.38;4.25;;;26.30;68.30;;;;;;5032166;28;20080;-81
2022/05/08 09:06:14;;;;;;;4.47;3.88;;;25.60;68.20;;;;;;5031477;28;20021;-81
2022/05/08 09:08:40;;;;;;;8.20;4.45;;;25.90;69.20;;;;;;5014914;28;20141;-81
2022/05/08 09:11:06;;;;;;;6.65;5.00;;;25.60;70.00;;;;;;5031193;28;20021;-81
2022/05/08 09:13:47;;;;;;;8.25;4.90;;;25.70;70.00;;;;;;5022702;28;20200;-81
2022/05/08 09:16:13;;;;;;;11.57;5.15;;;24.10;70.50;;;;;;5015281;28;20116;-81
2022/05/08 09:18:46;;;;;;;7.55;5.28;;;23.00;73.40;;;;;;5030722;28;20544;-81
2022/05/08 09:24:13;;;;;;;8.90;5.82;;;23.90;75.70;;;;;;5032924;28;20037;-81
2022/05/08 09:26:40;;;;;;;13.52;5.15;;;25.00;75.10;;;;;;5014827;28;20121;-82
2022/05/08 09:29:07;;;;;;;7.93;5.13;;;25.30;72.40;;;;;;5032546;28;20432;-81
2022/05/08 09:31:40;;;;;;;9.02;4.63;;;25.20;70.20;;;;;;5014634;28;20037;-81
2022/05/08 09:34:06;;;;;;;7.38;5.10;;;25.40;67.20;;;;;;5014675;28;20124;-81
2022/05/08 09:36:32;;;;;;;5.72;4.45;;;25.90;68.40;;;;;;5031169;28;20075;-81
2022/05/08 09:39:00;;;;;;;7.53;5.07;;;26.60;68.70;;;;;;5031488;28;20533;-82
2022/05/08 09:41:31;;;;;;;11.13;4.60;;;26.80;66.90;;;;;;5011821;28;20528;-81
2022/05/08 09:44:10;;;;;;;;;;;26.30;64.50;;;;;;5031363;28;20583;-81
2022/05/08 09:46:40;;;;;;;10.38;5.80;;;25.50;68.40;;;;;;5030182;28;19936;-81
2022/05/08 09:49:09;;;;;;;6.35;4.45;;;24.80;69.30;;;;;;5016455;28;20021;-81
2022/05/08 09:51:35;;;;;;;10.48;4.97;;;24.50;67.30;;;;;;5017478;28;20496;-81
2022/05/08 09:54:01;;;;;;;8.05;5.55;;;23.60;69.90;;;;;;5034299;28;20498;-82
2022/05/08 09:56:28;;;;;;;15.27;5.30;;;23.50;73.60;;;;;;5034865;28;20122;-81
2022/05/08 09:58:54;;;;;;;8.32;4.60;;;23.60;72.10;;;;;;5018458;28;20191;-81
2022/05/08 10:01:20;;;;;;;7.20;5.18;;;24.00;70.10;;;;;;5018358;28;20533;-81
2022/05/08 10:03:47;;;;;;;9.00;4.68;;;24.00;71.80;;;;;;5034634;28;20122;-82
2022/05/08 10:06:14;;;;;;;7.18;4.03;;;24.50;66.60;;;;;;5034598;28;20183;-81
2022/05/08 10:08:43;;;;;;;5.20;3.45;;;24.70;64.50;;;;;;5018258;28;20071;-81
2022/05/08 10:14:05;;;;;;;5.53;4.40;;;24.60;68.20;;;;;;5036268;28;20029;-81
2022/05/08 10:17:05;;;;;;;10.70;4.20;;;24.10;73.10;;;;;;5034978;28;20767;-81
2022/05/08 10:19:31;;;;;;;7.63;4.13;;;23.80;64.80;;;;;;5036009;28;20036;-81
2022/05/08 10:22:02;;;;;;;10.80;5.03;;;23.50;67.30;;;;;;5030126;28;20476;-81
2022/05/08 10:24:40;;;;;;;6.60;4.65;;;23.40;71.70;;;;;;5018246;28;20057;-81
2022/05/08 10:27:15;;;;;;;10.10;4.75;;;24.20;69.60;;;;;;5018122;28;20033;-81
2022/05/08 10:29:41;;;;;;;6.60;4.75;;;24.10;70.60;;;;;;5018248;28;20025;-81
2022/05/08 10:32:09;;;;;;;7.50;5.03;;;24.20;72.60;;;;;;5033824;28;20041;-81
2022/05/08 10:34:37;;;;;;;6.85;4.13;;;24.20;73.00;;;;;;5016923;28;20033;-81
2022/05/08 10:37:11;;;;;;;11.82;4.40;;;24.40;68.50;;;;;;5035089;28;20045;-81
2022/05/08 10:39:47;;;;;;;7.78;4.60;;;24.80;70.70;;;;;;5033697;28;20091;-81
2022/05/08 10:42:28;;;;;;;5.13;3.95;;;25.40;64.20;;;;;;5034008;28;20041;-81
2022/05/08 10:44:54;;;;;;;8.50;5.13;;;25.10;63.30;;;;;;5017701;28;20057;-81
2022/05/08 10:47:37;;;;;;;7.07;4.50;;;24.70;68.00;;;;;;5033492;28;20029;-81
2022/05/08 10:50:08;;;;;;;6.97;4.40;;;25.70;64.90;;;;;;5016871;28;20040;-81
2022/05/08 10:52:39;;;;;;;5.75;3.92;;;26.30;62.00;;;;;;5033574;28;20025;-82
2022/05/08 10:55:14;;;;;;;7.30;3.97;;;26.80;59.90;;;;;;5017474;28;20091;-81
2022/05/08 10:57:41;;;;;;;4.95;3.78;;;26.80;61.50;;;;;;5016786;28;20412;-81
2022/05/08 11:00:17;;;;;;;5.90;4.20;;;25.90;60.50;;;;;;5015853;28;20026;-82
2022/05/08 11:02:52;;;;;;;7.80;3.72;;;25.40;62.60;;;;;;5016753;28;20037;-81
2022/05/08 11:05:32;;;;;;;7.78;3.58;;;25.30;61.50;;;;;;5033453;28;20564;-82
2022/05/08 11:08:04;;;;;;;7.27;3.47;;;25.50;60.40;;;;;;5033304;28;20038;-81
2022/05/08 11:10:36;;;;;;;5.20;3.45;;;26.00;59.50;;;;;;5032590;28;20465;-81
2022/05/08 11:13:09;;;;;;;5.38;3.40;;;26.30;63.40;;;;;;5015622;28;20040;-82
2022/05/08 11:15:36;;;;;;;7.78;3.33;;;26.00;63.30;;;;;;5016992;28;20029;-81
2022/05/08 11:18:10;;;;;;;5.53;3.22;;;25.50;64.10;;;;;;5016723;28;20065;-82
2022/05/08 11:20:43;;;;;;;7.43;3.15;;;26.00;60.90;;;;;;5017086;28;20128;-81
2022/05/08 11:23:14;;;;;;;7.07;3.60;;;26.90;59.50;;;;;;5016671;28;20750;-81
2022/05/08 11:25:40;;;;;;;8.25;3.92;;;26.90;59.20;;;;;;5033524;28;20128;-82
2022/05/08 11:28:13;;;;;;;5.25;3.55;;;26.20;58.30;;;;;;5033322;28;20481;-82
2022/05/08 11:30:40;;;;;;;5.93;3.70;;;26.00;59.80;;;;;;5015797;28;20036;-81
2022/05/08 11:36:04;;;;;;;6.38;3.25;;;24.30;61.50;;;;;;5031154;28;20037;-82
2022/05/08 11:38:44;;;;;;;5.65;3.33;;;25.00;62.60;;;;;;5033071;28;20029;-81
2022/05/08 11:41:12;;;;;;;9.00;4.22;;;25.60;60.70;;;;;;5034487;28;20159;-81
2022/05/08 11:43:39;;;;;;;7.22;4.90;;;25.60;60.00;;;;;;5016300;28;20033;-81
2022/05/08 11:46:07;;;;;;;9.38;4.00;;;25.20;63.70;;;;;;5032454;28;20025;-81
2022/05/08 11:48:41;;;;;;;5.47;4.43;;;24.70;64.00;;;;;;5032577;28;20477;-81
2022/05/08 11:51:07;;;;;;;6.90;3.72;;;24.40;65.30;;;;;;5032961;28;20037;-81
2022/05/08 11:53:45;;;;;;;7.43;4.28;;;24.60;65.30;;;;;;5015909;28;20033;-81
2022/05/08 11:56:26;;;;;;;9.68;3.75;;;25.00;63.00;;;;;;5032997;28;20064;-81
2022/05/08 11:58:56;;;;;;;5.38;3.15;;;25.30;62.80;;;;;;5033249;28;20053;-81
2022/05/08 12:01:30;;;;;;;3.47;3.17;;;25.50;59.40;;;;;;5013406;28;20041;-81
2022/05/08 12:04:16;;;;;;;5.93;2.70;;;25.60;59.10;;;;;;5031620;28;20056;-82
2022/05/08 12:06:55;;;;;;;11.00;4.10;;;25.80;59.50;;;;;;5016087;28;20033;-82
2022/05/08 12:09:21;;;;;;;6.13;3.70;;;25.60;61.80;;;;;;5015851;28;20040;-82
2022/05/08 12:11:47;;;;;;;6.47;3.40;;;25.50;60.10;;;;;;5031655;28;20021;-82
2022/05/08 12:14:13;;;;;;;5.28;3.10;;;25.00;58.20;;;;;;5032284;28;20404;-81
2022/05/08 12:16:38;;;;;;;7.15;3.50;;;24.50;60.10;;;;;;5032442;28;20129;-81
2022/05/08 12:19:11;;;;;;;7.25;3.58;;;24.00;61.10;;;;;;5015841;28;20575;-82
2022/05/08 12:21:43;;;;;;;5.28;3.67;;;23.90;62.50;;;;;;5033118;28;20435;-82
2022/05/08 12:24:10;;;;;;;6.10;3.78;;;24.10;63.40;;;;;;5015636;28;20053;-82
2022/05/08 12:26:36;;;;;;;4.75;3.78;;;24.10;64.20;;;;;;5015746;28;20030;-81
2022/05/08 12:29:02;;;;;;;8.60;4.47;;;23.90;64.60;;;;;;5015784;28;20060;-82
2022/05/08 12:31:28;;;;;;;5.05;4.47;;;23.90;65.60;;;;;;5032255;28;20021;-82
2022/05/08 12:33:53;;;;;;;5.88;4.00;;;23.60;64.90;;;;;;5032114;28;20792;-81
2022/05/08 12:36:19;;;;;;;8.90;4.55;;;23.10;65.70;;;;;;5015685;28;20029;-82
2022/05/08 12:38:45;;;;;;;8.27;4.40;;;22.60;69.00;;;;;;5033357;28;20041;-82
2022/05/08 12:41:12;;;;;;;4.43;3.67;;;22.70;69.50;;;;;;5011172;28;20087;-81
2022/05/08 12:43:38;;;;;;;8.43;4.57;;;23.10;69.90;;;;;;5014822;28;20072;-81
2022/05/08 12:46:03;;;;;;;6.72;4.03;;;23.80;67.60;;;;;;5031545;28;20037;-82
2022/05/08 12:48:34;;;;;;;4.88;3.45;;;24.00;67.30;;;;;;5031705;28;20378;-81
2022/05/08 12:50:59;;;;;;;5.70;3.90;;;24.40;64.90;;;;;;5031507;28;20026;-82
2022/05/08 12:53:25;;;;;;;5.40;3.25;;;24.70;65.30;;;;;;5014973;28;20044;-81
2022/05/08 12:55:52;;;;;;;5.45;3.40;;;24.40;63.30;;;;;;5031422;28;20030;-81
2022/05/08 13:01:04;;;;;;;5.55;4.63;;;24.20;64.80;;;;;;5031223;28;20124;-82
2022/05/08 13:03:30;;;;;;;5.38;3.88;;;23.90;64.80;;;;;;5031594;28;20135;-82
2022/05/08 13:05:55;;;;;;;8.70;4.00;;;24.20;61.80;;;;;;5015275;28;20049;-81
2022/05/08 13:08:21;;;;;;;10.23;4.00;;;25.00;60.30;;;;;;5032812;28;20037;-82
2022/05/08 13:10:47;;;;;;;8.52;3.72;;;26.00;62.90;;;;;;5031769;28;20040;-81
2022/05/08 13:13:13;;;;;;;4.10;3.30;;;25.20;58.80;;;;;;5015024;28;20037;-81
2022/05/08 13:15:39;;;;;;;5.13;3.78;;;24.10;62.90;;;;;;5014883;28;20767;-81
2022/05/08 13:18:05;;;;;;;5.10;3.53;;;23.30;62.10;;;;;;5031733;28;20048;-81
2022/05/08 13:20:30;;;;;;;10.95;4.50;;;23.00;65.60;;;;;;5015044;28;20501;-81